Time;durP1;ratioP1;P1;durP2;ratioP2;P2;SDS_P1;SDS_P2;PMS_P1;PMS_P2;Temp;Humidity;BMP_temperature;BMP_pressure;BME280_temperature;BME280_humidity;BME280_pressure;Samples;Min_cycle;Max_cycle;Signal;HPM_P1;HPM_P2
2022/08/03 00:00:25;;;;;;;;;;;;;;;20.80;52.01;96970.81;30001;982;1877;-55
2022/08/03 00:00:56;;;;;;;;;;;;;;;20.78;52.29;96970.38;30001;982;1877;-57
2022/08/03 00:01:29;;;;;;;;;;;;;;;20.77;52.64;96966.03;30001;982;1877;-54
2022/08/03 00:02:02;;;;;;;;;;;;;;;20.76;52.30;96972.72;30001;982;1877;-53
2022/08/03 00:02:34;;;;;;;;;;;;;;;20.74;52.92;96970.31;30001;982;1877;-55
2022/08/03 00:03:05;;;;;;;;;;;;;;;20.72;52.85;96969.84;30001;983;1863;-57
2022/08/03 00:03:37;;;;;;;;;;;;;;;20.71;53.09;96969.06;30001;983;1867;-53
2022/08/03 00:04:09;;;;;;;;;;;;;;;20.69;52.97;96971.38;30001;983;1876;-57
2022/08/03 00:04:44;;;;;;;;;;;;;;;20.70;53.40;96969.41;30001;983;1876;-54
2022/08/03 00:05:15;;;;;;;;;;;;;;;20.68;53.06;96969.75;30001;983;1876;-54
2022/08/03 00:05:46;;;;;;;;;;;;;;;20.66;53.32;96969.31;30001;983;1877;-54
2022/08/03 00:06:17;;;;;;;;;;;;;;;20.65;53.17;96973.22;30001;983;1876;-54
2022/08/03 00:06:48;;;;;;;;;;;;;;;20.64;53.74;96971.62;30001;983;1877;-55
2022/08/03 00:07:19;;;;;;;;;;;;;;;20.63;53.50;96970.03;30001;983;1877;-54
2022/08/03 00:07:53;;;;;;;;;;;;;;;20.62;53.76;96973.94;30001;983;1877;-53
2022/08/03 00:08:25;;;;;;;;;;;;;;;20.59;53.40;96974.66;30001;982;1864;-55
2022/08/03 00:08:56;;;;;;;;;;;;;;;20.57;54.11;96974.22;30001;982;1868;-54
2022/08/03 00:09:26;;;;;;;;;;;;;;;20.57;53.83;96982.47;30001;982;1877;-54
2022/08/03 00:09:57;;;;;;;;;;;;;;;20.55;54.04;96979.28;30001;982;1877;-53
2022/08/03 00:10:29;;;;;;;;;;;;;;;20.54;54.04;96979.62;30001;983;1863;-55
2022/08/03 00:11:00;;;;;;;;;;;;;;;20.52;54.32;96974.47;30001;983;1854;-53
2022/08/03 00:11:33;;;;;;;;;;;;;;;20.49;54.32;96980.69;30001;983;1876;-54
2022/08/03 00:12:04;;;;;;;;;;;;;;;20.49;54.67;96975.16;30001;983;1863;-54
2022/08/03 00:12:36;;;;;;;;;;;;;;;20.47;54.62;96973.94;30001;983;1868;-54
2022/08/03 00:13:07;;;;;;;;;;;;;;;20.46;54.92;96981.41;30001;983;1876;-54
2022/08/03 00:13:40;;;;;;;;;;;;;;;20.44;55.14;96977.41;30001;983;1877;-54
2022/08/03 00:14:11;;;;;;;;;;;;;;;20.43;54.81;96979.38;30001;983;1877;-53
2022/08/03 00:14:42;;;;;;;;;;;;;;;20.41;55.11;96978.94;30001;983;1877;-54
2022/08/03 00:15:12;;;;;;;;;;;;;;;20.39;54.97;96981.22;30001;983;1877;-53
2022/08/03 00:15:45;;;;;;;;;;;;;;;20.39;55.48;96978.47;30001;982;1864;-55
2022/08/03 00:16:16;;;;;;;;;;;;;;;20.37;55.52;96976.06;30001;982;1868;-53
2022/08/03 00:16:46;;;;;;;;;;;;;;;20.35;55.66;96972.84;30001;982;1877;-54
2022/08/03 00:17:17;;;;;;;;;;;;;;;20.35;55.63;96977.56;30001;982;1877;-55
2022/08/03 00:17:49;;;;;;;;;;;;;;;20.34;55.33;96978.72;30001;982;1877;-54
2022/08/03 00:18:21;;;;;;;;;;;;;;;20.34;55.39;96973.19;30001;983;1876;-56
2022/08/03 00:18:52;;;;;;;;;;;;;;;20.33;55.54;96971.59;30001;983;1876;-54
2022/08/03 00:19:22;;;;;;;;;;;;;;;20.32;55.39;96976.31;30001;983;1876;-53
2022/08/03 00:19:53;;;;;;;;;;;;;;;20.33;55.58;96971.59;30001;983;1864;-54
2022/08/03 00:20:24;;;;;;;;;;;;;;;20.32;55.11;96970.78;30001;983;1876;-53
2022/08/03 00:20:56;;;;;;;;;;;;;;;20.31;55.61;96974.69;30001;983;1863;-55
2022/08/03 00:21:27;;;;;;;;;;;;;;;20.31;55.28;96979.41;30001;983;1868;-54
2022/08/03 00:21:58;;;;;;;;;;;;;;;20.31;55.34;96973.91;30001;983;1877;-53
2022/08/03 00:22:29;;;;;;;;;;;;;;;20.30;55.46;96973.09;30001;983;1877;-54
2022/08/03 00:23:00;;;;;;;;;;;;;;;20.31;55.60;96977.47;30001;983;1877;-54
2022/08/03 00:23:31;;;;;;;;;;;;;;;20.34;55.51;96975.94;30001;982;1877;-54
2022/08/03 00:24:03;;;;;;;;;;;;;;;20.34;55.67;96973.19;30001;982;1877;-54
2022/08/03 00:24:35;;;;;;;;;;;;;;;20.33;55.50;96977.09;30001;982;1877;-55
2022/08/03 00:25:06;;;;;;;;;;;;;;;20.33;55.36;96971.59;30001;982;1877;-56
2022/08/03 00:25:38;;;;;;;;;;;;;;;20.32;55.30;96962.53;30001;983;1876;-56
2022/08/03 00:26:09;;;;;;;;;;;;;;;20.33;55.42;96974.34;30001;983;1863;-53
2022/08/03 00:26:43;;;;;;;;;;;;;;;20.33;55.56;96968.84;30001;983;1781;-57
2022/08/03 00:27:14;;;;;;;;;;;;;;;20.35;55.43;96972.84;30001;983;1876;-56
2022/08/03 00:27:45;;;;;;;;;;;;;;;20.36;55.60;96971.69;30001;983;1876;-54
2022/08/03 00:28:17;;;;;;;;;;;;;;;20.38;55.45;96968.59;30001;983;1877;-54
2022/08/03 00:28:49;;;;;;;;;;;;;;;20.37;55.33;96973.31;30001;983;1877;-54
2022/08/03 00:29:23;;;;;;;;;;;;;;;20.37;55.26;96966.97;30001;983;1864;-57
2022/08/03 00:29:57;;;;;;;;;;;;;;;20.35;55.57;96969.28;30001;983;1868;-55
2022/08/03 00:30:28;;;;;;;;;;;;;;;20.35;55.72;96963.78;30001;983;1877;-55
2022/08/03 00:31:03;;;;;;;;;;;;;;;20.36;55.86;96976.41;30001;982;1877;-59
2022/08/03 00:31:34;;;;;;;;;;;;;;;20.35;55.65;96974.78;30001;982;1877;-54
2022/08/03 00:32:06;;;;;;;;;;;;;;;20.36;55.91;96966.19;30001;982;1877;-55
2022/08/03 00:32:37;;;;;;;;;;;;;;;20.38;55.91;96968.59;30001;982;1864;-55
2022/08/03 00:33:09;;;;;;;;;;;;;;;20.38;56.04;96974.91;30001;983;1868;-57
2022/08/03 00:33:40;;;;;;;;;;;;;;;20.39;55.85;96970.22;30001;983;1876;-55
2022/08/03 00:34:11;;;;;;;;;;;;;;;20.38;56.09;96963.91;30001;983;1876;-55
2022/08/03 00:34:42;;;;;;;;;;;;;;;20.38;56.25;96963.09;30001;983;1876;-55
2022/08/03 00:35:13;;;;;;;;;;;;;;;20.38;56.23;96968.59;30001;983;1876;-55
2022/08/03 00:35:44;;;;;;;;;;;;;;;20.39;56.43;96970.22;30001;983;1877;-55
2022/08/03 00:36:15;;;;;;;;;;;;;;;20.39;56.33;96960.00;30001;983;1876;-56
2022/08/03 00:36:46;;;;;;;;;;;;;;;20.39;56.27;96965.50;30001;983;1877;-54
2022/08/03 00:37:16;;;;;;;;;;;;;;;20.38;56.34;96968.59;30001;983;1877;-58
2022/08/03 00:37:49;;;;;;;;;;;;;;;20.37;56.20;96961.47;30001;982;1864;-55
2022/08/03 00:38:21;;;;;;;;;;;;;;;20.35;56.33;96963.78;30001;982;1868;-58
2022/08/03 00:38:52;;;;;;;;;;;;;;;20.33;56.35;96966.09;30001;982;1877;-57
2022/08/03 00:39:24;;;;;;;;;;;;;;;20.31;56.32;96960.91;30001;982;1877;-54
2022/08/03 00:39:54;;;;;;;;;;;;;;;20.30;56.38;96961.28;30001;982;1877;-55
2022/08/03 00:40:25;;;;;;;;;;;;;;;20.29;56.65;96959.66;30001;982;1877;-55
2022/08/03 00:40:57;;;;;;;;;;;;;;;20.28;56.45;96963.59;30001;983;1863;-54
2022/08/03 00:41:29;;;;;;;;;;;;;;;20.27;56.78;96957.28;30001;983;1867;-56
2022/08/03 00:42:03;;;;;;;;;;;;;;;20.26;56.75;96961.19;30001;983;1876;-54
2022/08/03 00:42:45;;;;;;;;;;;;;;;20.27;57.32;96961.97;30001;983;1877;-54
2022/08/03 00:43:17;;;;;;;;;;;;;;;20.28;57.05;96958.06;30001;983;1877;-55
2022/08/03 00:43:48;;;;;;;;;;;;;;;20.28;56.90;96958.06;30001;983;1877;-53
2022/08/03 00:44:20;;;;;;;;;;;;;;;20.28;57.40;96958.06;30001;983;1877;-54
2022/08/03 00:44:51;;;;;;;;;;;;;;;20.29;57.87;96959.66;30001;982;1877;-53
2022/08/03 00:45:23;;;;;;;;;;;;;;;20.28;57.73;96958.06;30001;982;1877;-53
2022/08/03 00:45:54;;;;;;;;;;;;;;;20.29;57.46;96962.44;30001;982;1877;-57
2022/08/03 00:46:25;;;;;;;;;;;;;;;20.29;57.57;96959.66;30001;982;1864;-53
2022/08/03 00:46:57;;;;;;;;;;;;;;;20.28;57.90;96958.88;30001;982;1868;-54
2022/08/03 00:47:27;;;;;;;;;;;;;;;20.27;57.84;96956.47;30001;982;1877;-54
2022/08/03 00:47:59;;;;;;;;;;;;;;;20.27;57.79;96959.22;30001;982;1877;-56
2022/08/03 00:48:31;;;;;;;;;;;;;;;20.26;57.78;96957.63;30001;983;1876;-54
2022/08/03 00:49:02;;;;;;;;;;;;;;;20.26;57.95;96954.88;30001;983;1876;-54
2022/08/03 00:49:33;;;;;;;;;;;;;;;20.25;57.79;96964.28;30001;983;1863;-55
2022/08/03 00:50:07;;;;;;;;;;;;;;;20.24;58.23;96957.16;30001;983;1868;-56
2022/08/03 00:50:39;;;;;;;;;;;;;;;20.24;57.89;96951.66;30001;983;1877;-54
2022/08/03 00:51:11;;;;;;;;;;;;;;;20.23;57.86;96961.09;30001;983;1863;-56
2022/08/03 00:51:42;;;;;;;;;;;;;;;20.22;58.39;96956.72;30001;983;1868;-56
2022/08/03 00:52:16;;;;;;;;;;;;;;;20.21;58.24;96957.88;30001;983;1877;-53
2022/08/03 00:52:47;;;;;;;;;;;;;;;20.22;58.17;96951.22;30001;982;1877;-54
2022/08/03 00:53:18;;;;;;;;;;;;;;;20.22;58.49;96951.22;30001;982;1877;-54
2022/08/03 00:53:50;;;;;;;;;;;;;;;20.22;58.71;96954.78;30001;982;1776;-54
2022/08/03 00:54:20;;;;;;;;;;;;;;;20.24;58.54;96954.41;30001;982;1877;-53
2022/08/03 00:54:55;;;;;;;;;;;;;;;20.23;58.28;96950.88;30001;982;1877;-54
2022/08/03 00:55:26;;;;;;;;;;;;;;;20.24;58.63;96946.16;30001;982;1877;-55
2022/08/03 00:55:57;;;;;;;;;;;;;;;20.24;58.54;96951.66;30001;983;1863;-54
2022/08/03 00:56:28;;;;;;;;;;;;;;;20.24;58.54;96951.66;30001;983;1868;-54
2022/08/03 00:57:00;;;;;;;;;;;;;;;20.23;58.29;96950.88;30001;983;1809;-54
2022/08/03 00:57:31;;;;;;;;;;;;;;;20.23;58.33;96950.06;30001;983;1877;-55
2022/08/03 00:58:05;;;;;;;;;;;;;;;20.21;58.16;96953.16;30001;983;1877;-54
2022/08/03 00:58:36;;;;;;;;;;;;;;;20.20;58.18;96948.00;30001;983;1877;-54
2022/08/03 00:59:09;;;;;;;;;;;;;;;20.20;58.48;96945.25;30001;983;1864;-54
2022/08/03 00:59:40;;;;;;;;;;;;;;;20.19;58.54;96954.69;30001;970;1887;-55
2022/08/03 01:00:14;;;;;;;;;;;;;;;20.20;58.42;96953.53;30001;961;1898;-57
2022/08/03 01:00:45;;;;;;;;;;;;;;;20.19;58.52;96951.91;30001;982;1877;-55
2022/08/03 01:01:16;;;;;;;;;;;;;;;20.19;58.41;96949.16;30001;982;1877;-54
2022/08/03 01:01:47;;;;;;;;;;;;;;;20.19;58.64;96952.72;30001;982;1877;-55
2022/08/03 01:02:18;;;;;;;;;;;;;;;20.19;58.68;96949.16;30001;982;1877;-55
2022/08/03 01:02:49;;;;;;;;;;;;;;;20.19;58.58;96946.41;30001;982;1877;-54
2022/08/03 01:03:20;;;;;;;;;;;;;;;20.20;58.58;96956.28;30001;986;1863;-55
2022/08/03 01:03:51;;;;;;;;;;;;;;;20.19;58.48;96951.91;30001;983;1824;-55
2022/08/03 01:04:22;;;;;;;;;;;;;;;20.19;58.20;96946.41;30001;983;1876;-55
2022/08/03 01:04:53;;;;;;;;;;;;;;;20.19;58.54;96943.66;30001;983;1876;-55
2022/08/03 01:05:24;;;;;;;;;;;;;;;20.19;58.45;96943.66;30001;983;1877;-56
2022/08/03 01:06:27;;;;;;;;;;;;;;;20.19;58.18;96944.47;30001;983;1877;-55
2022/08/03 01:07:36;;;;;;;;;;;;;;;20.18;58.50;96947.56;30001;983;1859;-56
2022/08/03 01:08:29;;;;;;;;;;;;;;;20.18;58.21;96945.59;30001;982;1863;-57
2022/08/03 01:09:21;;;;;;;;;;;;;;;20.18;58.27;96944.81;30001;982;1872;-57
2022/08/03 01:10:17;;;;;;;;;;;;;;;20.17;58.57;96940.44;30001;982;1873;-54
2022/08/03 01:11:07;;;;;;;;;;;;;;;20.17;58.21;96944.00;30001;983;1872;-55
2022/08/03 01:11:49;;;;;;;;;;;;;;;20.18;58.58;96937.34;30001;983;1868;-55
2022/08/03 01:12:46;;;;;;;;;;;;;;;20.18;58.26;96942.84;30001;983;1863;-55
2022/08/03 01:13:28;;;;;;;;;;;;;;;20.18;58.55;96942.06;30001;983;1863;-57
2022/08/03 01:14:04;;;;;;;;;;;;;;;20.17;58.47;96941.25;30001;983;1877;-54
2022/08/03 01:14:45;;;;;;;;;;;;;;;20.18;58.77;96937.34;30001;977;1881;-55
2022/08/03 01:15:30;;;;;;;;;;;;;;;20.18;58.63;96939.31;30001;982;1868;-54
2022/08/03 01:16:05;;;;;;;;;;;;;;;20.18;58.90;96936.53;30001;982;1877;-57
2022/08/03 01:16:55;;;;;;;;;;;;;;;20.20;59.00;96937.00;30001;982;1877;-55
2022/08/03 01:17:33;;;;;;;;;;;;;;;20.21;59.03;96933.09;30001;982;1860;-54
2022/08/03 01:18:32;;;;;;;;;;;;;;;20.20;58.91;96935.03;30001;983;1867;-55
2022/08/03 01:19:32;;;;;;;;;;;;;;;20.21;59.02;96941.34;30001;983;1859;-56
2022/08/03 01:20:08;;;;;;;;;;;;;;;20.19;59.02;96932.62;30001;983;1863;-55
2022/08/03 01:20:42;;;;;;;;;;;;;;;20.19;59.15;96932.62;30001;983;1877;-57
2022/08/03 01:21:39;;;;;;;;;;;;;;;20.18;58.75;96937.34;30001;983;1877;-55
2022/08/03 01:22:30;;;;;;;;;;;;;;;20.17;59.34;96935.75;30001;983;1859;-55
2022/08/03 01:23:27;;;;;;;;;;;;;;;20.15;59.39;96937.25;30001;964;1886;-56
2022/08/03 01:24:04;;;;;;;;;;;;;;;20.13;59.31;96931.28;30001;982;1873;-54
2022/08/03 01:24:53;;;;;;;;;;;;;;;20.12;59.42;96932.44;30001;982;1877;-54
2022/08/03 01:25:33;;;;;;;;;;;;;;;20.10;59.63;96938.31;30001;983;1867;-55
2022/08/03 01:26:30;;;;;;;;;;;;;;;20.07;59.53;96937.09;30001;983;1876;-58
2022/08/03 01:27:25;;;;;;;;;;;;;;;20.04;59.66;96935.03;30001;973;1890;-55
2022/08/03 01:28:17;;;;;;;;;;;;;;;20.04;59.56;96932.28;30001;983;1863;-56
2022/08/03 01:29:02;;;;;;;;;;;;;;;20.03;59.78;96940.91;30001;983;1864;-58
2022/08/03 01:29:53;;;;;;;;;;;;;;;20.02;59.93;96928.28;30001;983;1877;-54
2022/08/03 01:30:29;;;;;;;;;;;;;;;20.00;59.66;96925.88;30001;982;1859;-55
2022/08/03 01:31:05;;;;;;;;;;;;;;;20.00;59.91;96934.12;30001;982;1868;-54
2022/08/03 01:31:45;;;;;;;;;;;;;;;20.00;59.62;96930.56;30001;982;1877;-54
2022/08/03 01:32:17;;;;;;;;;;;;;;;19.99;59.94;96923.47;30001;982;1877;-53
2022/08/03 01:32:55;;;;;;;;;;;;;;;19.99;60.10;96928.97;30001;983;1876;-57
2022/08/03 01:33:47;;;;;;;;;;;;;;;19.99;59.86;96924.28;30001;983;1876;-54
2022/08/03 01:34:20;;;;;;;;;;;;;;;19.99;59.88;96921.50;30001;983;1876;-57
2022/08/03 01:34:56;;;;;;;;;;;;;;;19.99;59.79;96921.50;30001;983;1863;-55
2022/08/03 01:35:41;;;;;;;;;;;;;;;20.00;59.99;96919.56;30001;983;1868;-56
2022/08/03 01:36:14;;;;;;;;;;;;;;;19.97;59.61;96921.06;30001;965;1794;-55
2022/08/03 01:36:55;;;;;;;;;;;;;;;19.96;60.49;96918.66;30001;983;1877;-55
2022/08/03 01:37:44;;;;;;;;;;;;;;;19.94;60.03;96921.78;30001;983;1877;-55
2022/08/03 01:38:24;;;;;;;;;;;;;;;19.95;59.65;96928.87;30001;982;1877;-55
2022/08/03 01:38:59;;;;;;;;;;;;;;;19.95;59.51;96919.81;30001;982;1877;-57
2022/08/03 01:39:32;;;;;;;;;;;;;;;19.94;59.41;96921.78;30001;982;1877;-54
2022/08/03 01:40:04;;;;;;;;;;;;;;;19.94;60.04;96920.97;30001;982;1864;-55
2022/08/03 01:40:36;;;;;;;;;;;;;;;19.90;59.77;96920.88;30001;983;1868;-55
2022/08/03 01:41:09;;;;;;;;;;;;;;;19.89;60.22;96929.47;30001;983;1876;-55
2022/08/03 01:41:47;;;;;;;;;;;;;;;19.87;60.46;96927.09;30001;983;1876;-56
2022/08/03 01:42:19;;;;;;;;;;;;;;;19.84;61.19;96925.03;30001;983;1876;-57
2022/08/03 01:42:51;;;;;;;;;;;;;;;19.83;60.55;96922.63;30001;983;1877;-58
2022/08/03 01:43:36;;;;;;;;;;;;;;;19.81;61.12;96925.72;30001;983;1876;-57
2022/08/03 01:44:09;;;;;;;;;;;;;;;19.80;60.70;96926.09;30001;983;1864;-54
2022/08/03 01:44:43;;;;;;;;;;;;;;;19.79;60.89;96928.03;30001;982;1868;-58
2022/08/03 01:45:16;;;;;;;;;;;;;;;19.80;60.72;96921.37;30001;982;1877;-58
2022/08/03 01:45:48;;;;;;;;;;;;;;;19.79;60.61;96925.28;30001;982;1877;-55
2022/08/03 01:46:20;;;;;;;;;;;;;;;19.79;60.46;96917.03;30001;982;1864;-55
2022/08/03 01:46:53;;;;;;;;;;;;;;;19.78;60.42;96918.16;30001;982;1869;-58
2022/08/03 01:47:25;;;;;;;;;;;;;;;19.77;60.06;96913.00;30001;982;1877;-58
2022/08/03 01:47:56;;;;;;;;;;;;;;;19.76;60.52;96920.47;30001;983;1876;-55
2022/08/03 01:48:29;;;;;;;;;;;;;;;19.75;60.15;96918.91;30001;983;1876;-55
2022/08/03 01:49:00;;;;;;;;;;;;;;;19.74;60.51;96920.06;30001;983;1776;-55
2022/08/03 01:49:34;;;;;;;;;;;;;;;19.72;60.32;96916.84;30001;983;1877;-55
2022/08/03 01:50:06;;;;;;;;;;;;;;;19.71;60.21;96918.81;30001;983;1877;-54
2022/08/03 01:50:38;;;;;;;;;;;;;;;19.72;60.38;96922.34;30001;983;1877;-57
2022/08/03 01:51:09;;;;;;;;;;;;;;;19.71;60.53;96918.00;30001;983;1877;-54
2022/08/03 01:51:41;;;;;;;;;;;;;;;19.71;60.60;96926.25;30001;983;1864;-57
2022/08/03 01:52:16;;;;;;;;;;;;;;;19.69;60.55;96925.81;30001;982;1868;-57
2022/08/03 01:52:48;;;;;;;;;;;;;;;19.68;60.14;96916.75;30001;982;1877;-58
2022/08/03 01:53:19;;;;;;;;;;;;;;;19.68;60.46;96915.94;30001;982;1877;-58
2022/08/03 01:53:53;;;;;;;;;;;;;;;19.67;60.31;96919.84;30001;982;1877;-53
2022/08/03 01:54:24;;;;;;;;;;;;;;;19.66;60.32;96915.50;30001;982;1877;-57
2022/08/03 01:54:57;;;;;;;;;;;;;;;19.64;60.46;96923.31;30001;982;1877;-54
2022/08/03 01:55:33;;;;;;;;;;;;;;;19.62;60.99;96922.84;30001;983;1876;-53
2022/08/03 01:56:05;;;;;;;;;;;;;;;19.56;62.31;96922.28;30001;983;1876;-54
2022/08/03 01:56:37;;;;;;;;;;;;;;;19.51;62.04;96919.78;30001;983;1863;-58
2022/08/03 01:57:08;;;;;;;;;;;;;;;19.48;61.87;96919.66;30001;983;1778;-55
2022/08/03 01:57:42;;;;;;;;;;;;;;;19.47;61.64;96918.06;30001;983;1877;-58
2022/08/03 01:58:15;;;;;;;;;;;;;;;19.47;61.50;96918.06;30001;983;1877;-55
2022/08/03 01:58:48;;;;;;;;;;;;;;;19.47;61.65;96918.06;30001;983;1876;-57
2022/08/03 01:59:21;;;;;;;;;;;;;;;19.47;61.26;96923.56;30001;983;1877;-55
2022/08/03 01:59:54;;;;;;;;;;;;;;;19.47;61.67;96918.06;30001;982;1877;-58
2022/08/03 02:00:26;;;;;;;;;;;;;;;19.46;61.57;96917.25;30001;982;1857;-55
2022/08/03 02:00:59;;;;;;;;;;;;;;;19.47;61.58;96915.28;30001;982;1869;-55
2022/08/03 02:01:31;;;;;;;;;;;;;;;19.46;61.18;96917.25;30001;982;1877;-54
2022/08/03 02:02:03;;;;;;;;;;;;;;;19.45;61.20;96912.91;30001;982;1864;-54
2022/08/03 02:02:35;;;;;;;;;;;;;;;19.43;61.45;96913.25;30001;982;1868;-57
2022/08/03 02:03:07;;;;;;;;;;;;;;;19.43;61.29;96918.75;30001;983;1876;-55
2022/08/03 02:03:40;;;;;;;;;;;;;;;19.42;61.01;96917.13;30001;983;1876;-55
2022/08/03 02:04:14;;;;;;;;;;;;;;;19.41;61.55;96915.53;30001;983;1876;-53
2022/08/03 02:04:47;;;;;;;;;;;;;;;19.36;62.15;96918.56;30001;983;1877;-58
2022/08/03 02:05:21;;;;;;;;;;;;;;;19.30;62.22;96914.44;30001;983;1863;-55
2022/08/03 02:05:54;;;;;;;;;;;;;;;19.24;62.42;96915.84;30001;983;1868;-55
2022/08/03 02:06:26;;;;;;;;;;;;;;;19.21;62.56;96916.53;30001;983;1877;-58
2022/08/03 02:06:58;;;;;;;;;;;;;;;19.19;62.83;96918.81;30001;983;1877;-55
2022/08/03 02:07:31;;;;;;;;;;;;;;;19.18;63.06;96917.22;30001;982;1864;-55
2022/08/03 02:08:03;;;;;;;;;;;;;;;19.16;63.29;96914.03;30001;982;1868;-58
2022/08/03 02:08:34;;;;;;;;;;;;;;;19.16;62.79;96914.03;30001;982;1877;-57
2022/08/03 02:09:06;;;;;;;;;;;;;;;19.15;62.98;96917.91;30001;982;1877;-56
2022/08/03 02:09:39;;;;;;;;;;;;;;;19.15;62.77;96922.63;30001;982;1877;-53
2022/08/03 02:10:12;;;;;;;;;;;;;;;19.16;62.34;96913.22;30001;982;1877;-55
2022/08/03 02:10:45;;;;;;;;;;;;;;;19.16;62.57;96913.22;30001;983;1876;-58
2022/08/03 02:11:16;;;;;;;;;;;;;;;19.17;62.12;96917.56;30001;983;1876;-56
2022/08/03 02:11:47;;;;;;;;;;;;;;;19.17;62.36;96910.12;30001;983;1876;-55
2022/08/03 02:12:19;;;;;;;;;;;;;;;19.18;62.20;96917.22;30001;983;1863;-56
2022/08/03 02:12:51;;;;;;;;;;;;;;;19.18;62.21;96916.44;30001;983;1868;-54
2022/08/03 02:13:23;;;;;;;;;;;;;;;19.17;62.07;96910.12;30001;983;1784;-57
2022/08/03 02:13:59;;;;;;;;;;;;;;;19.17;62.22;96915.63;30001;983;1877;-55
2022/08/03 02:14:30;;;;;;;;;;;;;;;19.13;62.40;96911.97;30001;983;1877;-56
2022/08/03 02:15:02;;;;;;;;;;;;;;;19.10;62.88;96907.16;30001;982;1877;-57
2022/08/03 02:15:34;;;;;;;;;;;;;;;19.09;62.97;96909.09;30001;982;1877;-53
2022/08/03 02:16:06;;;;;;;;;;;;;;;19.08;63.42;96909.44;30001;982;1877;-57
2022/08/03 02:16:38;;;;;;;;;;;;;;;19.03;63.44;96916.00;30001;982;1877;-54
2022/08/03 02:17:09;;;;;;;;;;;;;;;19.02;63.37;96910.84;30001;983;1863;-58
2022/08/03 02:17:41;;;;;;;;;;;;;;;18.98;63.81;96916.25;30001;983;1867;-54
2022/08/03 02:18:12;;;;;;;;;;;;;;;18.97;63.68;96922.09;30001;983;1876;-55
2022/08/03 02:18:44;;;;;;;;;;;;;;;18.97;63.00;96914.66;30001;983;1877;-55
2022/08/03 02:19:17;;;;;;;;;;;;;;;18.98;63.11;96919.00;30001;983;1876;-54
2022/08/03 02:19:49;;;;;;;;;;;;;;;18.99;62.89;96914.31;30001;986;1877;-54
2022/08/03 02:20:20;;;;;;;;;;;;;;;19.00;62.78;96911.22;30001;983;1877;-54
2022/08/03 02:20:51;;;;;;;;;;;;;;;19.00;62.88;96911.22;30001;983;1877;-54
2022/08/03 02:21:22;;;;;;;;;;;;;;;18.98;63.49;96912.69;30001;983;1877;-55
2022/08/03 02:21:53;;;;;;;;;;;;;;;18.94;63.76;96917.28;30001;983;1773;-54
2022/08/03 02:22:24;;;;;;;;;;;;;;;18.90;64.22;96916.38;30001;982;1864;-54
2022/08/03 02:22:55;;;;;;;;;;;;;;;18.86;65.96;96918.22;30001;982;1868;-55
2022/08/03 02:23:26;;;;;;;;;;;;;;;18.82;64.95;96912.59;30001;982;1877;-57
2022/08/03 02:23:57;;;;;;;;;;;;;;;18.81;65.49;96919.25;30001;982;1877;-54
2022/08/03 02:24:28;;;;;;;;;;;;;;;18.80;65.67;96917.62;30001;982;1877;-54
2022/08/03 02:25:00;;;;;;;;;;;;;;;18.79;64.70;96915.22;30001;983;1863;-55
2022/08/03 02:25:32;;;;;;;;;;;;;;;18.81;64.69;96918.44;30001;983;1854;-55
2022/08/03 02:26:05;;;;;;;;;;;;;;;18.81;64.24;96915.69;30001;983;1876;-55
2022/08/03 02:26:37;;;;;;;;;;;;;;;18.82;64.00;96914.53;30001;983;1876;-55
2022/08/03 02:27:24;;;;;;;;;;;;;;;18.83;63.86;96922.44;30001;983;1876;-55
2022/08/03 02:27:57;;;;;;;;;;;;;;;18.85;63.92;96919.34;30001;983;1876;-55
2022/08/03 02:28:34;;;;;;;;;;;;;;;18.87;63.81;96920.59;30001;983;1864;-54
2022/08/03 02:29:10;;;;;;;;;;;;;;;18.88;63.58;96924.97;30001;983;1855;-54
2022/08/03 02:29:42;;;;;;;;;;;;;;;18.89;63.83;96925.75;30001;983;1877;-55
2022/08/03 02:30:13;;;;;;;;;;;;;;;18.88;64.86;96924.16;30001;982;1863;-57
2022/08/03 02:30:46;;;;;;;;;;;;;;;18.86;63.98;96926.44;30001;982;1855;-54
2022/08/03 02:31:23;;;;;;;;;;;;;;;18.82;64.75;96920.84;30001;982;1877;-55
2022/08/03 02:31:56;;;;;;;;;;;;;;;18.80;64.69;96916.84;30001;982;1877;-54
2022/08/03 02:32:38;;;;;;;;;;;;;;;18.77;64.81;96917.53;30001;983;1863;-55
2022/08/03 02:33:11;;;;;;;;;;;;;;;18.74;64.89;96919.00;30001;983;1868;-55
2022/08/03 02:33:43;;;;;;;;;;;;;;;18.73;65.34;96918.22;30001;983;1863;-55
2022/08/03 02:34:16;;;;;;;;;;;;;;;18.71;65.41;96926.00;30001;962;1823;-54
2022/08/03 02:34:49;;;;;;;;;;;;;;;18.70;64.94;96921.66;30001;983;1796;-55
2022/08/03 02:35:21;;;;;;;;;;;;;;;18.72;64.99;96921.28;30001;983;1877;-55
2022/08/03 02:35:53;;;;;;;;;;;;;;;18.72;65.46;96922.09;30001;983;1864;-53
2022/08/03 02:36:26;;;;;;;;;;;;;;;18.71;65.44;96915.00;30001;983;1868;-55
2022/08/03 02:37:02;;;;;;;;;;;;;;;18.71;65.39;96915.00;30001;983;1877;-57
2022/08/03 02:37:35;;;;;;;;;;;;;;;18.71;65.55;96920.50;30001;982;1877;-54
2022/08/03 02:38:08;;;;;;;;;;;;;;;18.71;65.17;96916.97;30001;982;1877;-56
2022/08/03 02:38:41;;;;;;;;;;;;;;;18.71;66.14;96915.00;30001;982;1877;-54
2022/08/03 02:39:14;;;;;;;;;;;;;;;18.69;65.80;96914.56;30001;982;1864;-54
2022/08/03 02:39:46;;;;;;;;;;;;;;;18.68;66.33;96921.22;30001;982;1868;-54
2022/08/03 02:40:19;;;;;;;;;;;;;;;18.67;66.02;96919.59;30001;983;1876;-54
2022/08/03 02:40:54;;;;;;;;;;;;;;;18.66;66.01;96918.00;30001;983;1863;-55
2022/08/03 02:41:34;;;;;;;;;;;;;;;18.66;66.14;96920.75;30001;983;1868;-54
2022/08/03 02:42:06;;;;;;;;;;;;;;;18.67;66.69;96918.81;30001;983;1876;-56
2022/08/03 02:42:39;;;;;;;;;;;;;;;18.66;67.18;96917.22;30001;983;1877;-55
2022/08/03 02:43:11;;;;;;;;;;;;;;;18.64;67.13;96917.56;30001;983;1877;-55
2022/08/03 02:43:44;;;;;;;;;;;;;;;18.63;67.06;96915.13;30001;983;1864;-55
2022/08/03 02:44:17;;;;;;;;;;;;;;;18.61;67.30;96918.22;30001;983;1868;-54
2022/08/03 02:44:49;;;;;;;;;;;;;;;18.58;67.16;96913.41;30001;982;1877;-57
2022/08/03 02:45:21;;;;;;;;;;;;;;;18.57;66.66;96920.03;30001;982;1877;-55
2022/08/03 02:45:52;;;;;;;;;;;;;;;18.58;66.49;96916.13;30001;982;1877;-55
2022/08/03 02:46:25;;;;;;;;;;;;;;;18.58;66.27;96918.09;30001;982;1877;-54
2022/08/03 02:47:00;;;;;;;;;;;;;;;18.59;66.26;96916.94;30001;982;1877;-54
2022/08/03 02:47:31;;;;;;;;;;;;;;;18.59;66.43;96912.25;30001;983;1876;-53
2022/08/03 02:48:03;;;;;;;;;;;;;;;18.62;66.25;96917.09;30001;983;1868;-54
2022/08/03 02:48:36;;;;;;;;;;;;;;;18.63;65.79;96915.94;30001;983;1872;-54
2022/08/03 02:49:07;;;;;;;;;;;;;;;18.65;66.12;96921.09;30001;983;1881;-54
2022/08/03 02:49:40;;;;;;;;;;;;;;;18.66;66.13;96918.00;30001;983;1881;-55
2022/08/03 02:50:12;;;;;;;;;;;;;;;18.69;65.51;96913.78;30001;983;1868;-56
2022/08/03 02:50:44;;;;;;;;;;;;;;;18.69;65.45;96909.06;30001;983;1872;-54
2022/08/03 02:51:17;;;;;;;;;;;;;;;18.72;65.59;96915.81;30001;983;1881;-54
2022/08/03 02:51:51;;;;;;;;;;;;;;;18.73;65.47;96909.97;30001;982;1881;-54
2022/08/03 02:52:23;;;;;;;;;;;;;;;18.74;66.00;96917.06;30001;982;1882;-56
2022/08/03 02:52:57;;;;;;;;;;;;;;;18.74;65.45;96911.56;30001;982;1881;-54
2022/08/03 02:53:29;;;;;;;;;;;;;;;18.75;65.52;96915.91;30001;982;1868;-57
2022/08/03 02:54:02;;;;;;;;;;;;;;;18.76;65.33;96908.47;30001;982;1873;-53
2022/08/03 02:54:34;;;;;;;;;;;;;;;18.77;65.71;96912.03;30001;982;1882;-54
2022/08/03 02:55:08;;;;;;;;;;;;;;;18.79;65.45;96909.72;30001;983;1881;-53
2022/08/03 02:55:40;;;;;;;;;;;;;;;18.81;65.40;96919.25;30001;983;1867;-53
2022/08/03 02:56:12;;;;;;;;;;;;;;;18.82;65.14;96914.53;30001;983;1872;-57
2022/08/03 02:56:45;;;;;;;;;;;;;;;18.82;65.36;96911.78;30001;983;1881;-54
2022/08/03 02:57:18;;;;;;;;;;;;;;;18.83;65.30;96910.66;30001;983;1881;-54
2022/08/03 02:57:50;;;;;;;;;;;;;;;18.82;66.34;96909.84;30001;983;1855;-56
2022/08/03 02:58:22;;;;;;;;;;;;;;;18.80;67.28;96912.13;30001;983;1881;-55
2022/08/03 02:58:54;;;;;;;;;;;;;;;18.78;67.12;96913.63;30001;983;1881;-54
2022/08/03 02:59:26;;;;;;;;;;;;;;;18.75;66.65;96910.41;30001;982;1868;-57
2022/08/03 03:00:02;;;;;;;;;;;;;;;18.73;67.48;96918.22;30001;986;1873;-57
2022/08/03 03:00:33;;;;;;;;;;;;;;;18.70;66.93;96913.44;30001;982;1881;-55
2022/08/03 03:01:05;;;;;;;;;;;;;;;18.69;66.82;96911.81;30001;982;1881;-54
2022/08/03 03:01:37;;;;;;;;;;;;;;;18.69;67.76;96917.31;30001;982;1882;-54
2022/08/03 03:02:08;;;;;;;;;;;;;;;18.66;67.90;96915.25;30001;982;1882;-54
2022/08/03 03:02:40;;;;;;;;;;;;;;;18.65;68.06;96910.09;30001;983;1881;-54